Beatty, Nevada Weather observations

Data are for observation ending at time listed.
 Day   Time    Ave.   Ave.  Ave.  Vector   Max.   Stn.    Total    Solar   Ave.  
  of    of     Air    Rel.  Wind   Wind    Wind   Baro.  Precip.   Rad.    Soil  
Year   Day     Temp.  Hum.  Speed  Dir.    Gust   Pres.                    Temp. 
2016   (PST)    F      %     mph   deg.    mph     mb.     in.     W/m2     F   
------------------------------------------------------------------------------
 176   13:00  100.6     5    3.6   118      7.7   896.4    0.00     791    87.2
 176   13:10  102.1     5    3.1   177      6.9   896.3    0.00     787    87.3
 176   13:20  102.3     5    5.3   172     11.7   896.2    0.00     780    87.4
 176   13:30  102.3     5    6.2   198     10.3   896.2    0.00     772    87.5
 176   13:40  102.1     5    4.4   207     10.4   896.0    0.00     760    87.5
 176   13:50  102.1     5    3.6   179     10.4   895.9    0.00     747    87.6
 176   14:00  102.4     5    2.8   212      9.4   895.8    0.00     732    87.7
 176   14:10  102.5     5    6.8   181     13.0   895.7    0.00     709    87.8
 176   14:20  101.5     6    8.2   211     15.3   895.6    0.00     692    87.9
 176   14:30  101.5     6    6.0   182     13.4   895.6    0.00     672    88.0
 176   14:40  101.4     6    7.0   197     12.5   895.4    0.00     650    88.1
 176   14:50  102.2     5    5.6   212     16.2   895.4    0.00     633    88.2
 176   15:00  101.1     6    7.8   220     13.7   895.4    0.00     614    88.3
 176   15:10  100.7     6    4.2   241     11.3   895.2    0.00     592    88.4
 176   15:20  101.0     5    6.2   148     16.9   895.1    0.00     568    88.5
 176   15:30  101.8     5    6.2   197     15.2   895.0    0.00     543    88.6
 176   15:40  101.2     6    6.4   225     12.0   894.9    0.00     520    88.7
 176   15:50  101.6     5    5.4   200     11.5   894.9    0.00     493    88.8
 176   16:00  101.0     6    8.2   222     14.0   894.8    0.00     468    88.9
 176   16:10  100.6     6    4.8   228     12.1   894.7    0.00     443    89.0
 176   16:20  101.5     5    5.9   212     10.7   894.6    0.00     415    89.2
 176   16:30  101.0     5    4.1   182      9.6   894.6    0.00     390    89.3
 176   16:40  101.9     5    5.3   217     11.9   894.4    0.00     361    89.3
 176   16:50  101.3     6    6.7   207     11.2   894.4    0.00     335    89.4
 176   17:00  100.8     6    4.2   231     10.4   894.3    0.00     309    89.5
 176   17:10  101.5     5    4.8   182     10.1   894.3    0.00     283    89.6
 176   17:20  101.3     5    3.9   216      7.8   894.3    0.00     232    89.6
 176   17:30  100.7     5    4.8   217     10.4   894.2    0.00     229    89.7
 176   17:40  100.9     5    5.5   205     11.5   894.2    0.00     203    89.8
 176   17:50  100.5     5    4.6   188      9.9   894.3    0.00     177    89.8
 176   18:00  100.3     6    5.0   203      9.6   894.3    0.00     152    89.9
 176   18:10  100.3     6    3.8   206      8.3   894.3    0.00     128    89.9
 176   18:20   99.4     6    4.1   205      7.4   894.4    0.00     105    90.0
 176   18:30   98.9     6    4.7   204      7.8   894.4    0.00      79    90.0
 176   18:40   98.1     6    3.9   213      8.1   894.4    0.00      52    90.1
 176   18:50   96.7     6    2.6   219      4.1   894.4    0.00      22    90.1
 176   19:00   95.2     6    3.3   214      6.1   894.5    0.00       9    90.1
 176   19:10   94.1     6    3.3   217      6.1   894.5    0.00       6    90.1
 176   19:20   93.9     6    3.2   223      5.6   894.6    0.00       3    90.2
 176   19:30   93.7     6    3.2   224      5.8   894.6    0.00       0    90.2
 176   19:40   92.6     6    2.6   215      3.9   894.6    0.00       0    90.2
 176   19:50   92.2     6    2.8   227      5.0   894.8    0.00       0    90.2
 176   20:00   91.4     7    2.0   250      4.3   894.9    0.00       0    90.2
 176   20:10   89.5     8    2.5   306      3.9   895.3    0.00       0    90.2
 176   20:20   88.5     7    1.6     6      5.8   895.7    0.00       0    90.2
 176   20:30   90.1     7    1.4   337      4.7   895.9    0.00       0    90.2
 176   20:40   90.1     7    1.8    15      4.7   896.1    0.00       0    90.2
 176   20:50   90.4     8    6.4     2     13.5   896.2    0.00       0    90.2
 176   21:00   90.9     7   10.4     2     17.5   896.3    0.00       0    90.2
 176   21:10   90.5     8    9.3     2     16.8   896.6    0.00       0    90.3
 176   21:20   89.7     8    9.4     4     15.1   896.8    0.00       0    90.2
 176   21:30   89.3     8    9.4     5     16.0   896.9    0.00       0    90.2
 176   21:40   89.0     8   10.0     7     17.5   897.1    0.00       0    90.2
 176   21:50   88.5     8    8.3     3     12.9   897.2    0.00       0    90.2
 176   22:00   87.9     8    7.6     6     11.4   897.3    0.00       0    90.2
 176   22:10   87.7     8    8.2     3     14.8   897.5    0.00       0    90.2
 176   22:20   87.6     8    8.5   359     14.6   897.6    0.00       0    90.2
 176   22:30   87.5     8    7.8     0     14.2   897.6    0.00       0    90.2
 176   22:40   87.4     8    7.9     6     13.0   897.7    0.00       0    90.2
 176   22:50   87.5     8    8.4     7     16.6   897.8    0.00       0    90.2
 176   23:00   87.2     8    8.7     4     14.7   897.9    0.00       0    90.2
 176   23:10   87.1     8    8.5     9     15.8   898.0    0.00       0    90.2
 176   23:20   86.8     8    8.8    12     14.7   898.0    0.00       0    90.2
 176   23:30   85.6     8    5.6    28     13.7   898.1    0.00       0    90.2
 176   23:40   82.8     9    4.2    33      9.3   898.2    0.00       0    90.1
 176   23:50   82.2     9    3.6    42      7.6   898.2    0.00       0    90.1
 177    0:00   82.6     9    3.6    56      7.9   898.2    0.00       0    90.1
 177    0:10   81.2     9    2.8    39      6.6   898.3    0.00       0    90.1
 177    0:20   79.3    10    3.7    14      9.1   898.3    0.00       0    90.1
 177    0:30   80.1     9    4.3    32      8.8   898.4    0.00       0    90.0
 177    0:40   79.9     9    3.5    39      8.3   898.3    0.00       0    90.0
 177    0:50   79.9     9    4.2    51     10.3   898.3    0.00       0    89.9
 177    1:00   79.4     9    4.4    40     10.9   898.4    0.00       0    89.9
 177    1:10   80.8     9    5.3    21     12.7   898.5    0.00       0    89.9
 177    1:20   79.2     9    3.5    30      8.7   898.6    0.00       0    89.8
 177    1:30   78.3    10    4.1    29      9.6   898.6    0.00       0    89.8
 177    1:40   77.2    10    5.9    10     10.5   898.7    0.00       0    89.8
 177    1:50   77.6    10    6.4     8     11.9   898.8    0.00       0    89.8
 177    2:00   77.0    10    6.2    16     11.0   898.9    0.00       0    89.7
 177    2:10   76.6    10    5.6   357     10.2   898.9    0.00       0    89.7
 177    2:20   76.4    10    4.2    41      8.1   898.9    0.00       0    89.7
 177    2:30   76.1    10    3.6    46      7.7   898.9    0.00       0    89.7
 177    2:40   76.4    10    3.6    37      8.0   899.0    0.00       0    89.6
 177    2:50   76.4    10    3.6    46      7.7   899.0    0.00       0    89.5
 177    3:00   75.6    10    4.0    29      8.1   899.0    0.00       0    89.5
 177    3:10   76.0    10    4.5    23      8.4   899.1    0.00       0    89.5
 177    3:20   76.5    10    3.7    28      7.5   899.2    0.00       0    89.4
 177    3:30   76.6    10    3.5    61      8.8   899.3    0.00       0    89.4
 177    3:40   76.4    10    3.4    54      7.2   899.3    0.00       0    89.3
 177    3:50   74.9    10    3.5    45      9.0   899.4    0.00       0    89.3
 177    4:00   73.5    10    4.2    15      8.7   899.5    0.00       0    89.3
 177    4:10   74.3    10    4.7    33     10.7   899.6    0.00       0    89.2
 177    4:20   73.7    10    5.2    15     11.7   899.7    0.00       0    89.2
 177    4:30   73.5    10    4.8    14      8.5   899.7    0.00       1    89.1
 177    4:40   73.8    10    4.1    22      8.0   899.8    0.00       5    89.1
 177    4:50   73.6    10    3.1    39      7.1   899.9    0.00       8    89.0
 177    5:00   73.0    11    3.6    11      7.3   899.9    0.00      15    89.0
 177    5:10   73.9    10    4.1    20      8.0   900.1    0.00      30    89.0
 177    5:20   74.0    11    4.1    16      8.1   900.2    0.00      81    88.9
 177    5:30   75.7    10    3.8    26      9.2   900.3    0.00     110    88.8
 177    5:40   76.7    10    3.1    46      7.9   900.3    0.00     134    88.8
 177    5:50   77.7    10    3.2    35      6.6   900.3    0.00     162    88.7
 177    6:00   80.1    10    2.8    33      7.5   900.4    0.00     186    88.7
 177    6:10   81.1     9    4.8    10     13.2   900.4    0.00     210    88.6
 177    6:20   81.5     9    7.1     7     12.7   900.5    0.00     235    88.5
 177    6:30   81.8     9    7.8     5     12.6   900.5    0.00     150    88.5
 177    6:40   82.0     9    7.8     5     12.1   900.5    0.00      67    88.4
 177    6:50   82.5     9    8.2     3     13.6   900.5    0.00      66    88.4
 177    7:00   82.7     9    7.8   360     13.4   900.5    0.00     106    88.3
 177    7:10   83.0     9    7.9     2     14.4   900.6    0.00      59    88.3
 177    7:20   83.5     9    8.3   356     14.8   900.6    0.00     126    88.2
 177    7:30   83.9     9    8.4     2     14.6   900.7    0.00     160    88.2
 177    7:40   84.1     9    9.2     4     15.2   900.7    0.00     436    88.2
 177    7:50   84.5     9    8.2   360     14.7   900.7    0.00     479    88.1
 177    8:00   85.3     9    8.3     4     13.7   900.7    0.00     504    88.1
 177    8:10   85.8     9    8.4     1     14.7   900.7    0.00     530    88.0
 177    8:20   86.4     9    8.2   358     15.3   900.6    0.00     554    88.0
 177    8:30   86.9     9    8.1   349     15.1   900.6    0.00     575    87.9
 177    8:40   87.6     9    7.4   351     14.8   900.4    0.00     598    87.8
 177    8:50   88.3     8    6.1   348     13.2   900.5    0.00     619    87.7
 177    9:00   89.1     8    6.2   354     12.3   900.4    0.00     641    87.7
 177    9:10   89.6     8    5.3   351     11.3   900.4    0.00     659    87.7
 177    9:20   90.3     8    6.7   354     11.5   900.3    0.00     678    87.6
 177    9:30   90.6     8    5.2   345     11.6   900.2    0.00     695    87.6
 177    9:40   91.3     8    4.9   337     10.8   900.1    0.00     711    87.5
 177    9:50   92.6     7    2.5   356      8.3   900.1    0.00     728    87.5
 177   10:00   93.2     7    4.3   342      9.6   900.1    0.00     739    87.4
 177   10:10   93.1     7    3.6   317      9.5   900.0    0.00     747    87.3
 177   10:20   94.0     7    2.7   293      6.9   899.9    0.00     761    87.3
 177   10:30   94.2     7    3.3   306      7.8   899.9    0.00     763    87.3
 177   10:40   95.9     6    2.4   144      7.2   899.8    0.00     780    87.2
 177   10:50   96.2     6    3.9   145     10.6   899.7    0.00     789    87.2
 177   11:00   97.1     6    3.4   198      7.4   899.7    0.00     797    87.2
 177   11:10   97.4     6    2.8   194      6.8   899.6    0.00     802    87.2
 177   11:20   97.2     6    2.9   106      6.1   899.4    0.00     803    87.2
 177   11:30   97.9     6    2.8   168      7.8   899.4    0.00     808    87.2
 177   11:40   97.1     6    2.4   255      7.6   899.3    0.00     814    87.2
 177   11:50   97.5     6    3.4   145      6.1   899.1    0.00     813    87.2
 177   12:00   98.6     6    5.1   205     10.0   899.0    0.00     811    87.2
 177   12:10   98.3     6    3.9   189      9.8   899.0    0.00     812    87.2
 177   12:20   99.1     6    3.5   185      8.9   899.0    0.00     810    87.2
 177   12:30   99.0     6    3.5   210      8.8   898.9    0.00     807    87.3
 177   12:40  100.1     6    2.1    21      5.0   898.8    0.00     795    87.3
 177   12:50   99.4     6    4.8   214     12.9   898.8    0.00     799    87.4

Return to Beatty, Nevada graphs page.


Western Regional Climate Center,wrcc@dri.edu